Time;durP1;ratioP1;P1;durP2;ratioP2;P2;SDS_P1;SDS_P2;PMS_P1;PMS_P2;Temp;Humidity;BMP_temperature;BMP_pressure;BME280_temperature;BME280_humidity;BME280_pressure;Samples;Min_cycle;Max_cycle;Signal;HPM_P1;HPM_P2
2021/06/20 00:01:16;;;;;;;30.90;18.80;;;17.40;99.90;;;;;;5054081;28;20227;-82
2021/06/20 00:03:44;;;;;;;32.77;20.60;;;17.30;99.90;;;;;;5053865;28;20200;-80
2021/06/20 00:06:29;;;;;;;31.90;19.40;;;17.30;99.90;;;;;;5054258;28;20227;-80
2021/06/20 00:08:56;;;;;;;30.57;19.57;;;17.40;99.90;;;;;;5053534;28;20226;-80
2021/06/20 00:11:24;;;;;;;34.57;20.30;;;17.40;99.90;;;;;;5053999;28;20283;-79
2021/06/20 00:13:52;;;;;;;33.53;20.63;;;17.50;99.90;;;;;;5054042;28;20611;-80
2021/06/20 00:16:19;;;;;;;33.03;20.97;;;17.40;99.90;;;;;;5054302;28;20223;-79
2021/06/20 00:18:48;;;;;;;35.73;21.27;;;17.40;99.90;;;;;;5054129;28;20204;-83
2021/06/20 00:21:15;;;;;;;37.67;22.20;;;17.40;99.90;;;;;;5039490;28;20244;-79
2021/06/20 00:23:42;;;;;;;37.37;22.30;;;17.30;99.90;;;;;;5053561;28;20199;-80
2021/06/20 00:26:09;;;;;;;38.20;23.87;;;17.40;99.90;;;;;;5050263;28;20634;-80
2021/06/20 00:28:36;;;;;;;42.17;25.47;;;17.40;99.90;;;;;;5053555;28;20219;-80
2021/06/20 00:31:03;;;;;;;40.33;24.97;;;17.40;99.90;;;;;;5053685;28;20204;-78
2021/06/20 00:33:30;;;;;;;41.73;25.00;;;17.40;99.90;;;;;;5053675;28;20234;-80
2021/06/20 00:35:59;;;;;;;44.30;26.00;;;17.30;99.90;;;;;;5053889;28;20233;-80
2021/06/20 00:38:26;;;;;;;45.67;26.33;;;17.30;99.90;;;;;;5036025;28;20275;-80
2021/06/20 00:40:54;;;;;;;43.63;25.27;;;17.40;99.90;;;;;;5053499;28;20306;-79
2021/06/20 00:43:21;;;;;;;51.27;28.13;;;17.40;99.90;;;;;;5053370;28;20657;-79
2021/06/20 00:45:48;;;;;;;49.47;28.03;;;17.40;99.90;;;;;;5053711;28;20223;-79
2021/06/20 00:48:14;;;;;;;46.60;26.80;;;17.40;99.90;;;;;;5049247;28;20264;-79
2021/06/20 00:50:41;;;;;;;53.13;28.53;;;17.50;99.90;;;;;;5050078;28;20612;-79
2021/06/20 00:53:10;;;;;;;53.17;29.20;;;17.50;99.90;;;;;;5053262;28;20295;-79
2021/06/20 00:55:38;;;;;;;50.37;27.40;;;17.60;99.90;;;;;;5053481;28;20224;-79
2021/06/20 00:58:06;;;;;;;48.40;27.50;;;17.70;99.90;;;;;;5042671;28;20292;-79
2021/06/20 01:00:35;;;;;;;55.93;29.57;;;17.70;99.90;;;;;;5053072;28;20196;-79
2021/06/20 01:03:02;;;;;;;52.33;28.27;;;17.80;99.90;;;;;;5052922;28;20638;-83
2021/06/20 01:05:29;;;;;;;55.63;28.73;;;17.60;99.90;;;;;;5052787;28;20290;-81
2021/06/20 01:07:57;;;;;;;51.00;28.07;;;17.70;99.90;;;;;;5053403;28;20246;-79
2021/06/20 01:10:28;;;;;;;60.23;30.47;;;17.80;99.90;;;;;;5038928;28;20294;-77
2021/06/20 01:12:55;;;;;;;51.53;29.77;;;17.80;99.90;;;;;;5045368;28;20218;-78
2021/06/20 01:15:23;;;;;;;60.27;32.37;;;17.60;99.90;;;;;;5052707;28;20279;-78
2021/06/20 01:17:50;;;;;;;58.03;31.07;;;17.40;99.90;;;;;;5053200;28;20278;-78
2021/06/20 01:20:20;;;;;;;59.10;30.70;;;17.20;99.90;;;;;;5053171;28;20210;-81
2021/06/20 01:22:49;;;;;;;58.50;31.33;;;17.20;99.90;;;;;;5052905;28;20224;-78
2021/06/20 01:25:18;;;;;;;63.60;32.67;;;17.40;99.90;;;;;;5051422;28;20282;-79
2021/06/20 01:27:49;;;;;;;62.37;34.20;;;17.60;99.90;;;;;;5041193;28;20695;-78
2021/06/20 01:30:23;;;;;;;71.03;34.77;;;17.90;99.90;;;;;;5052636;28;20312;-78
2021/06/20 01:32:51;;;;;;;68.33;36.93;;;18.00;99.90;;;;;;5045391;28;20213;-79
2021/06/20 01:35:18;;;;;;;69.77;37.13;;;18.10;99.90;;;;;;5046652;28;20298;-78
2021/06/20 01:37:45;;;;;;;70.60;36.63;;;17.90;99.90;;;;;;5053080;28;20279;-78
2021/06/20 01:40:16;;;;;;;67.90;37.30;;;18.00;99.90;;;;;;5057263;28;20211;-79
2021/06/20 01:42:43;;;;;;;72.77;38.20;;;18.20;99.90;;;;;;5056707;28;20368;-78
2021/06/20 01:45:12;;;;;;;80.57;38.07;;;18.30;99.90;;;;;;5056605;28;20564;-78
2021/06/20 01:47:39;;;;;;;70.93;38.67;;;18.30;99.90;;;;;;5056594;28;20567;-78
2021/06/20 01:50:09;;;;;;;75.83;39.50;;;18.30;99.90;;;;;;5052210;28;20617;-78
2021/06/20 01:52:36;;;;;;;77.73;40.73;;;18.30;99.90;;;;;;5056433;28;20196;-81
2021/06/20 01:55:04;;;;;;;77.20;38.90;;;18.40;99.90;;;;;;5056390;28;20196;-78
2021/06/20 01:57:35;;;;;;;82.40;41.40;;;18.40;99.90;;;;;;5055963;28;20283;-79
2021/06/20 02:00:05;;;;;;;86.50;42.93;;;18.40;99.90;;;;;;5056108;28;20261;-82
2021/06/20 02:02:32;;;;;;;80.23;41.23;;;18.30;99.90;;;;;;5056452;28;20220;-78
2021/06/20 02:04:59;;;;;;;82.63;43.27;;;18.30;99.90;;;;;;5056576;28;20291;-78
2021/06/20 02:07:27;;;;;;;93.03;45.00;;;18.20;99.90;;;;;;5056313;28;20283;-78
2021/06/20 02:09:55;;;;;;;86.87;43.57;;;18.30;99.90;;;;;;5056325;28;20204;-78
2021/06/20 02:12:23;;;;;;;91.00;44.27;;;18.40;99.90;;;;;;5055951;28;20262;-77
2021/06/20 02:14:52;;;;;;;88.87;45.40;;;18.40;99.90;;;;;;5056035;28;20200;-82
2021/06/20 02:17:27;;;;;;;94.47;47.87;;;18.40;99.90;;;;;;5056105;28;20192;-78
2021/06/20 02:19:57;;;;;;;93.80;46.87;;;18.40;99.90;;;;;;5055916;28;20192;-78
2021/06/20 02:22:25;;;;;;;92.10;46.07;;;18.40;99.90;;;;;;5056297;28;20335;-77
2021/06/20 02:24:52;;;;;;;100.20;47.50;;;18.30;99.90;;;;;;5055264;28;20226;-82
2021/06/20 02:27:19;;;;;;;102.57;46.93;;;18.30;99.90;;;;;;5055802;28;20197;-77
2021/06/20 02:29:49;;;;;;;103.77;47.63;;;18.30;99.90;;;;;;5056301;28;20239;-78
2021/06/20 02:32:17;;;;;;;110.07;50.50;;;18.30;99.90;;;;;;5055945;28;20192;-77
2021/06/20 02:34:44;;;;;;;105.37;47.47;;;18.40;99.90;;;;;;5055630;28;20191;-78
2021/06/20 02:37:13;;;;;;;100.43;46.20;;;18.20;99.90;;;;;;5055324;28;20204;-81
2021/06/20 02:39:40;;;;;;;100.40;46.77;;;18.30;99.90;;;;;;5055981;28;20295;-77
2021/06/20 02:42:08;;;;;;;109.43;46.90;;;18.10;99.90;;;;;;5055548;28;20311;-78
2021/06/20 02:44:35;;;;;;;99.37;45.77;;;18.00;99.90;;;;;;5055962;28;20219;-78
2021/06/20 02:47:05;;;;;;;100.23;45.27;;;18.00;99.90;;;;;;5055150;28;20203;-77
2021/06/20 02:49:34;;;;;;;96.60;41.53;;;17.90;99.90;;;;;;5048409;28;20247;-79
2021/06/20 02:52:02;;;;;;;95.80;41.80;;;17.90;99.90;;;;;;5055572;28;20199;-80
2021/06/20 02:54:29;;;;;;;90.30;41.80;;;17.90;99.90;;;;;;5055590;28;20287;-77
2021/06/20 02:56:56;;;;;;;89.77;39.57;;;17.90;99.90;;;;;;5055432;28;20206;-78
2021/06/20 02:59:23;;;;;;;83.20;36.57;;;17.90;99.90;;;;;;5055445;28;20200;-77
2021/06/20 03:01:50;;;;;;;77.97;36.90;;;17.90;99.90;;;;;;5055064;28;20307;-77
2021/06/20 03:04:17;;;;;;;85.73;38.37;;;17.80;99.90;;;;;;5055251;28;20220;-77
2021/06/20 03:06:45;;;;;;;80.70;37.53;;;17.80;99.90;;;;;;5054841;28;20709;-78
2021/06/20 03:09:12;;;;;;;81.27;38.30;;;17.80;99.90;;;;;;5055206;28;20604;-77
2021/06/20 03:11:42;;;;;;;83.80;38.47;;;17.70;99.90;;;;;;5054884;28;20553;-77
2021/06/20 03:14:09;;;;;;;78.73;37.40;;;17.70;99.90;;;;;;5054718;28;20211;-78
2021/06/20 03:16:36;;;;;;;80.70;37.70;;;17.80;99.90;;;;;;5055116;28;20279;-77
2021/06/20 03:19:04;;;;;;;80.73;38.07;;;17.90;99.90;;;;;;5054674;28;20231;-78
2021/06/20 03:21:32;;;;;;;82.20;39.10;;;17.90;99.90;;;;;;5054569;28;20287;-77
2021/06/20 03:24:00;;;;;;;85.00;38.93;;;18.00;99.90;;;;;;5047512;28;20301;-78
2021/06/20 03:26:28;;;;;;;82.43;37.77;;;18.00;99.90;;;;;;5048598;28;20200;-77
2021/06/20 03:28:56;;;;;;;78.53;38.43;;;18.10;99.90;;;;;;5054595;28;20192;-77
2021/06/20 03:31:23;;;;;;;83.20;38.67;;;18.20;99.90;;;;;;5054626;28;20246;-76
2021/06/20 03:33:50;;;;;;;82.97;38.47;;;18.30;99.90;;;;;;5054514;28;20210;-77
2021/06/20 03:36:17;;;;;;;81.03;37.53;;;18.30;99.90;;;;;;5054601;28;20226;-77
2021/06/20 03:38:44;;;;;;;77.17;37.63;;;18.40;99.90;;;;;;5054530;28;20246;-77
2021/06/20 03:41:12;;;;;;;79.77;38.17;;;18.30;99.90;;;;;;5054727;28;20283;-78
2021/06/20 03:43:41;;;;;;;73.63;36.20;;;18.30;99.90;;;;;;5054520;28;20641;-77
2021/06/20 03:46:09;;;;;;;75.77;37.10;;;18.30;99.90;;;;;;5054291;28;20192;-77
2021/06/20 03:48:36;;;;;;;71.73;34.80;;;18.30;99.90;;;;;;5054201;28;20678;-78
2021/06/20 03:51:03;;;;;;;72.27;35.60;;;18.20;99.90;;;;;;5033804;28;20650;-79
2021/06/20 03:53:30;;;;;;;67.30;35.10;;;18.20;99.90;;;;;;5054488;28;20204;-78
2021/06/20 03:55:57;;;;;;;69.43;35.47;;;18.20;99.90;;;;;;5053967;28;20254;-77
2021/06/20 03:58:26;;;;;;;68.17;35.67;;;18.20;99.90;;;;;;5053911;28;20669;-77
2021/06/20 04:00:53;;;;;;;72.30;35.87;;;18.20;99.90;;;;;;5053455;28;20193;-77
2021/06/20 04:03:20;;;;;;;70.20;35.37;;;18.20;99.90;;;;;;5053897;28;20219;-79
2021/06/20 04:05:47;;;;;;;73.77;36.70;;;18.30;99.90;;;;;;5053929;28;20199;-80
2021/06/20 04:08:13;;;;;;;66.47;36.33;;;18.20;99.90;;;;;;5054041;28;20198;-80
2021/06/20 04:10:40;;;;;;;70.47;35.60;;;18.30;99.90;;;;;;5054309;28;20224;-78
2021/06/20 04:13:07;;;;;;;70.20;34.77;;;18.30;99.90;;;;;;5053484;28;20291;-78
2021/06/20 04:15:36;;;;;;;76.13;36.40;;;18.30;99.90;;;;;;5053740;28;20617;-78
2021/06/20 04:18:03;;;;;;;73.07;34.20;;;18.30;99.90;;;;;;5053736;28;20192;-78
2021/06/20 04:20:29;;;;;;;67.87;33.93;;;18.20;99.90;;;;;;5053955;28;20561;-78
2021/06/20 04:22:57;;;;;;;70.23;33.77;;;18.20;99.90;;;;;;5041679;28;20312;-79
2021/06/20 04:25:24;;;;;;;67.00;33.50;;;18.20;99.90;;;;;;5052702;28;20223;-77
2021/06/20 04:27:51;;;;;;;66.90;33.43;;;18.20;99.90;;;;;;5052547;28;20284;-78
2021/06/20 04:30:20;;;;;;;65.43;33.67;;;18.20;99.90;;;;;;5052632;28;20588;-77
2021/06/20 04:32:49;;;;;;;56.50;30.77;;;18.30;99.90;;;;;;5045035;28;20197;-79
2021/06/20 04:35:18;;;;;;;59.70;32.47;;;18.30;99.90;;;;;;5058315;28;20202;-78
2021/06/20 04:37:45;;;;;;;55.73;30.07;;;18.30;99.90;;;;;;5057969;28;20279;-78
2021/06/20 04:40:16;;;;;;;60.20;31.57;;;18.30;99.90;;;;;;5062446;28;20198;-78
2021/06/20 04:42:43;;;;;;;56.70;30.13;;;18.50;99.90;;;;;;5058318;28;20219;-80
2021/06/20 04:45:13;;;;;;;51.13;29.53;;;18.40;99.90;;;;;;5062709;28;20271;-81
2021/06/20 04:47:41;;;;;;;49.70;28.67;;;18.50;99.90;;;;;;5048864;28;20707;-78
2021/06/20 04:50:11;;;;;;;50.30;28.17;;;18.60;99.90;;;;;;5060926;28;20668;-78
2021/06/20 04:52:41;;;;;;;46.27;27.53;;;18.50;99.90;;;;;;5057934;28;20291;-77
2021/06/20 04:55:09;;;;;;;42.90;26.23;;;18.60;99.90;;;;;;5060486;28;20271;-79
2021/06/20 04:57:36;;;;;;;49.53;27.17;;;18.70;99.90;;;;;;5059692;28;20235;-78
2021/06/20 05:00:05;;;;;;;47.90;27.03;;;18.80;99.90;;;;;;5058618;28;20288;-78
2021/06/20 05:02:32;;;;;;;44.70;25.57;;;18.80;99.90;;;;;;5060976;28;20223;-78
2021/06/20 05:05:00;;;;;;;44.83;26.00;;;18.60;99.90;;;;;;5057570;28;20615;-78
2021/06/20 05:07:28;;;;;;;46.67;26.03;;;18.70;99.90;;;;;;5057281;28;20192;-79
2021/06/20 05:09:55;;;;;;;47.23;25.37;;;18.80;99.90;;;;;;5052890;28;20192;-78
2021/06/20 05:12:22;;;;;;;47.87;25.97;;;18.80;99.90;;;;;;5052207;28;20235;-78
2021/06/20 05:14:49;;;;;;;44.30;26.20;;;19.00;99.90;;;;;;5052555;28;20279;-78
2021/06/20 05:17:18;;;;;;;40.83;24.57;;;19.10;99.90;;;;;;5053115;28;20282;-78
2021/06/20 05:19:45;;;;;;;42.43;26.03;;;19.50;99.90;;;;;;5052376;28;20618;-77
2021/06/20 05:22:12;;;;;;;43.13;25.53;;;19.90;99.90;;;;;;5053216;28;20227;-79
2021/06/20 05:24:42;;;;;;;41.07;24.33;;;19.90;99.90;;;;;;5052583;28;20658;-79
2021/06/20 05:27:10;;;;;;;39.00;25.00;;;19.90;99.90;;;;;;5052896;28;20292;-78
2021/06/20 05:29:37;;;;;;;36.00;24.07;;;19.80;99.90;;;;;;5052377;28;20638;-78
2021/06/20 05:32:05;;;;;;;38.20;23.57;;;20.50;99.90;;;;;;5052765;28;20198;-78
2021/06/20 05:34:32;;;;;;;33.47;22.07;;;21.20;99.90;;;;;;5052737;28;20254;-78
2021/06/20 05:36:59;;;;;;;31.63;22.58;;;21.80;99.90;;;;;;5052798;28;20282;-78
2021/06/20 05:39:26;;;;;;;27.88;20.38;;;22.50;99.90;;;;;;5052878;28;20279;-78
2021/06/20 05:41:54;;;;;;;29.27;21.30;;;23.10;99.90;;;;;;5052955;28;20283;-78
2021/06/20 05:44:21;;;;;;;32.83;21.30;;;23.20;99.90;;;;;;5052989;28;20299;-79
2021/06/20 05:46:48;;;;;;;32.63;22.00;;;22.90;99.90;;;;;;5039375;28;20206;-79
2021/06/20 05:49:15;;;;;;;31.65;20.45;;;22.90;99.90;;;;;;5041920;28;20606;-79
2021/06/20 05:51:42;;;;;;;28.98;21.10;;;23.00;99.90;;;;;;5046460;28;20275;-79
2021/06/20 05:54:09;;;;;;;30.88;21.30;;;22.90;99.90;;;;;;5048515;28;20204;-78
2021/06/20 05:56:36;;;;;;;30.58;21.75;;;22.70;99.90;;;;;;5052295;28;20276;-78
2021/06/20 05:59:05;;;;;;;33.97;22.30;;;22.60;99.90;;;;;;5045065;28;20193;-82
2021/06/20 06:01:32;;;;;;;31.38;21.95;;;22.60;99.90;;;;;;5043126;28;20197;-82
2021/06/20 06:03:59;;;;;;;38.80;22.95;;;22.60;99.90;;;;;;5050903;28;20477;-79
2021/06/20 06:06:26;;;;;;;30.48;21.45;;;22.40;99.90;;;;;;5042445;28;20208;-80
2021/06/20 06:08:53;;;;;;;28.58;19.95;;;22.90;99.90;;;;;;5052066;28;20200;-79
2021/06/20 06:11:21;;;;;;;32.55;21.38;;;23.10;99.90;;;;;;5051374;28;20204;-79
2021/06/20 06:13:47;;;;;;;30.63;20.85;;;22.70;99.90;;;;;;5044505;28;20228;-82
2021/06/20 06:16:16;;;;;;;31.70;20.98;;;22.30;99.90;;;;;;5045172;28;20284;-78
2021/06/20 06:18:43;;;;;;;32.83;20.63;;;21.90;99.90;;;;;;5047129;28;20200;-82
2021/06/20 06:21:10;;;;;;;30.15;21.45;;;21.80;99.90;;;;;;5051865;28;20733;-79
2021/06/20 06:23:37;;;;;;;25.83;18.88;;;22.20;99.90;;;;;;5044877;28;20304;-79
2021/06/20 06:26:04;;;;;;;26.25;18.52;;;23.20;99.90;;;;;;5050349;28;20614;-81
2021/06/20 06:28:31;;;;;;;20.60;16.90;;;24.80;99.90;;;;;;5054888;28;20219;-82
2021/06/20 06:30:58;;;;;;;20.65;15.60;;;26.60;99.90;;;;;;5055739;28;20196;-79
2021/06/20 06:33:26;;;;;;;19.08;14.48;;;28.60;99.90;;;;;;5058095;28;20204;-79
2021/06/20 06:35:53;;;;;;;18.15;13.98;;;29.60;99.90;;;;;;5049259;28;20631;-80
2021/06/20 06:38:20;;;;;;;15.60;13.40;;;30.20;99.90;;;;;;5055196;28;20204;-82
2021/06/20 06:40:47;;;;;;;16.35;12.50;;;30.50;99.90;;;;;;5054712;28;20279;-82
2021/06/20 06:43:14;;;;;;;15.77;12.98;;;30.50;99.90;;;;;;5046837;28;20311;-80
2021/06/20 06:45:41;;;;;;;17.20;13.80;;;30.40;99.90;;;;;;5072012;28;20252;-81
2021/06/20 06:48:08;;;;;;;16.35;13.63;;;29.30;99.90;;;;;;5074809;28;20227;-80
2021/06/20 06:50:37;;;;;;;15.77;13.45;;;28.10;99.90;;;;;;5073551;28;20202;-81
2021/06/20 06:53:04;;;;;;;16.67;13.10;;;27.20;99.90;;;;;;5052896;28;20201;-81
2021/06/20 06:55:31;;;;;;;15.60;11.02;;;27.90;99.90;;;;;;5052475;28;20247;-83
2021/06/20 06:57:58;;;;;;;12.50;9.90;;;29.20;99.90;;;;;;5056123;28;20200;-83
2021/06/20 07:00:25;;;;;;;11.90;7.80;;;29.10;99.90;;;;;;5061299;28;20238;-82
2021/06/20 07:02:54;;;;;;;8.13;7.30;;;28.90;99.90;;;;;;5064876;28;20223;-80
2021/06/20 07:05:21;;;;;;;9.98;7.35;;;28.60;99.90;;;;;;5073533;28;20564;-85
2021/06/20 07:07:49;;;;;;;11.43;7.07;;;28.10;99.90;;;;;;5058687;28;20212;-81
2021/06/20 07:10:16;;;;;;;11.38;6.18;;;27.60;99.90;;;;;;5044825;28;20721;-81
2021/06/20 07:12:43;;;;;;;6.40;5.43;;;28.20;99.90;;;;;;5052702;28;20607;-79
2021/06/20 07:15:12;;;;;;;7.57;5.80;;;28.50;99.90;;;;;;5048789;28;20820;-81
2021/06/20 07:17:39;;;;;;;7.82;5.25;;;29.50;99.90;;;;;;5052265;28;20207;-83
2021/06/20 07:20:09;;;;;;;6.45;5.05;;;30.80;99.90;;;;;;5050184;28;20360;-80
2021/06/20 07:22:37;;;;;;;5.65;4.10;;;31.80;99.90;;;;;;5052063;28;20250;-81
2021/06/20 07:25:06;;;;;;;5.65;4.13;;;32.60;99.90;;;;;;5052718;28;20283;-82
2021/06/20 07:27:35;;;;;;;6.80;3.97;;;33.40;99.90;;;;;;5045820;28;20203;-81
2021/06/20 07:30:04;;;;;;;4.00;3.42;;;34.30;99.90;;;;;;5049948;28;20200;-86
2021/06/20 07:32:31;;;;;;;4.50;3.40;;;33.70;99.90;;;;;;5042032;28;20231;-83
2021/06/20 07:34:58;;;;;;;5.30;2.95;;;33.00;99.90;;;;;;5054170;28;20234;-82
2021/06/20 07:37:25;;;;;;;4.47;2.90;;;34.00;99.90;;;;;;5052563;28;20226;-82
2021/06/20 07:39:52;;;;;;;2.78;2.42;;;34.30;99.90;;;;;;5053040;28;20885;-82
2021/06/20 07:42:20;;;;;;;5.80;2.40;;;34.00;99.90;;;;;;5055504;28;20231;-81
2021/06/20 07:44:47;;;;;;;2.45;2.10;;;33.80;99.90;;;;;;5060350;28;20261;-82
2021/06/20 07:47:15;;;;;;;2.58;1.77;;;34.00;99.90;;;;;;5042465;28;20216;-83
2021/06/20 07:49:42;;;;;;;3.17;1.83;;;34.80;99.90;;;;;;5053239;28;20200;-81
2021/06/20 07:52:08;;;;;;;3.40;2.10;;;35.50;99.90;;;;;;5071977;28;20203;-83
2021/06/20 07:54:35;;;;;;;2.38;2.17;;;36.30;99.90;;;;;;5066395;28;20212;-79
2021/06/20 07:57:03;;;;;;;3.08;1.58;;;36.30;99.90;;;;;;5051713;28;20669;-84
2021/06/20 07:59:31;;;;;;;3.67;1.80;;;36.50;99.90;;;;;;5044491;28;20209;-82
2021/06/20 08:01:58;;;;;;;2.47;1.60;;;34.90;99.90;;;;;;5038234;28;20345;-79
2021/06/20 08:04:25;;;;;;;2.58;1.70;;;34.20;99.90;;;;;;5053546;28;20602;-81
2021/06/20 08:06:52;;;;;;;3.72;1.50;;;34.60;99.90;;;;;;5038719;28;20711;-79
2021/06/20 08:09:19;;;;;;;2.78;1.25;;;34.60;99.90;;;;;;5053442;28;20704;-79
2021/06/20 08:11:46;;;;;;;2.05;1.42;;;33.90;99.90;;;;;;5044646;28;20209;-79
2021/06/20 08:14:14;;;;;;;1.50;1.40;;;33.70;99.90;;;;;;5033123;28;20232;-78
2021/06/20 08:16:43;;;;;;;3.53;1.55;;;34.90;99.90;;;;;;5033539;28;20201;-78
2021/06/20 08:19:10;;;;;;;2.53;1.48;;;34.70;99.90;;;;;;5041923;28;20196;-80
2021/06/20 08:21:36;;;;;;;3.65;1.33;;;32.70;99.90;;;;;;5044732;28;20499;-80
2021/06/20 08:24:04;;;;;;;2.08;1.70;;;31.30;99.90;;;;;;5042718;28;20758;-80
2021/06/20 08:26:31;;;;;;;2.97;1.40;;;30.40;99.90;;;;;;5049558;28;20192;-79
2021/06/20 08:28:58;;;;;;;2.13;1.67;;;30.00;99.90;;;;;;5044187;28;20257;-81
2021/06/20 08:31:25;;;;;;;4.30;1.58;;;29.80;99.90;;;;;;5048285;28;20723;-80
2021/06/20 08:33:54;;;;;;;1.83;1.35;;;29.10;99.90;;;;;;5066184;28;20231;-80
2021/06/20 08:36:21;;;;;;;3.05;1.80;;;28.60;99.90;;;;;;5050271;28;20250;-78
2021/06/20 08:38:48;;;;;;;1.65;1.55;;;28.60;99.90;;;;;;5038769;28;20275;-81
2021/06/20 08:41:15;;;;;;;1.95;1.65;;;27.90;99.90;;;;;;5042383;28;20224;-81
2021/06/20 08:43:43;;;;;;;3.83;1.42;;;27.40;99.90;;;;;;5045216;28;20587;-79
2021/06/20 08:46:10;;;;;;;3.97;1.65;;;28.60;99.90;;;;;;5038685;28;20197;-78
2021/06/20 08:48:38;;;;;;;4.13;1.33;;;30.60;99.90;;;;;;5050903;28;20281;-81
2021/06/20 08:51:07;;;;;;;1.92;1.55;;;31.70;99.90;;;;;;5048070;28;20280;-80
2021/06/20 08:53:34;;;;;;;1.30;1.20;;;33.00;99.90;;;;;;5050385;28;20199;-80
2021/06/20 08:56:01;;;;;;;1.75;1.17;;;33.60;99.90;;;;;;5043952;28;20209;-82
2021/06/20 08:58:32;;;;;;;1.40;1.27;;;34.20;99.90;;;;;;5052370;28;20253;-81
2021/06/20 09:01:00;;;;;;;2.58;1.00;;;34.30;99.90;;;;;;5049745;28;20547;-82
2021/06/20 09:03:37;;;;;;;1.85;1.20;;;34.50;99.90;;;;;;5045260;28;20211;-79
2021/06/20 09:06:13;;;;;;;5.47;1.30;;;33.80;99.90;;;;;;5048497;28;20242;-79
2021/06/20 09:08:40;;;;;;;2.75;1.30;;;34.00;99.90;;;;;;5047001;28;20192;-80
2021/06/20 09:11:07;;;;;;;1.88;1.27;;;34.00;99.90;;;;;;5046802;28;20253;-80
2021/06/20 09:13:35;;;;;;;2.28;1.17;;;34.00;99.90;;;;;;5047451;28;20228;-83
2021/06/20 09:16:09;;;;;;;1.70;1.10;;;33.50;99.90;;;;;;5048384;28;20218;-80
2021/06/20 09:18:36;;;;;;;2.88;1.50;;;33.50;99.90;;;;;;5046846;28;20634;-80
2021/06/20 09:21:10;;;;;;;2.33;1.42;;;33.80;99.90;;;;;;5046946;28;20203;-82
2021/06/20 09:23:42;;;;;;;2.72;1.10;;;34.90;99.90;;;;;;5050665;28;20200;-82
2021/06/20 09:26:12;;;;;;;1.95;1.20;;;36.50;99.90;;;;;;5050009;28;20197;-82
2021/06/20 09:28:38;;;;;;;2.10;1.10;;;37.60;99.90;;;;;;5051870;28;20196;-80
2021/06/20 09:31:07;;;;;;;1.20;1.10;;;37.90;99.90;;;;;;5051512;28;20192;-81
2021/06/20 09:33:36;;;;;;;5.32;1.48;;;37.80;98.30;;;;;;5051138;28;20200;-81
2021/06/20 09:36:04;;;;;;;1.33;1.17;;;37.70;97.80;;;;;;5051054;28;20207;-82
2021/06/20 09:38:34;;;;;;;2.17;1.10;;;37.40;98.00;;;;;;5050944;28;20253;-83
2021/06/20 09:41:04;;;;;;;1.15;1.05;;;35.20;99.40;;;;;;5051479;28;20207;-82
2021/06/20 09:43:32;;;;;;;2.05;1.10;;;33.80;99.90;;;;;;5052089;28;20208;-81
2021/06/20 09:45:59;;;;;;;1.10;0.90;;;34.20;99.90;;;;;;5047076;28;20207;-81
2021/06/20 09:48:29;;;;;;;1.42;1.05;;;34.90;99.90;;;;;;5060674;28;20227;-79
2021/06/20 09:50:56;;;;;;;1.10;1.00;;;35.60;99.10;;;;;;5053944;28;20208;-79
2021/06/20 09:53:38;;;;;;;2.50;1.10;;;35.90;98.50;;;;;;5058704;28;20321;-79
2021/06/20 09:56:13;;;;;;;3.42;0.85;;;36.20;97.90;;;;;;5056655;28;20202;-79
2021/06/20 09:58:43;;;;;;;1.73;0.88;;;35.70;98.00;;;;;;5059918;28;20187;-80
2021/06/20 10:01:11;;;;;;;2.97;1.02;;;35.60;99.30;;;;;;5059224;28;20630;-81
2021/06/20 10:03:42;;;;;;;1.08;0.82;;;33.90;98.10;;;;;;5055499;28;20216;-80
2021/06/20 10:06:11;;;;;;;1.05;0.93;;;32.80;99.90;;;;;;5054621;28;20333;-80
2021/06/20 10:08:40;;;;;;;2.88;1.00;;;33.50;99.90;;;;;;5055841;28;20242;-80
2021/06/20 10:11:07;;;;;;;2.35;0.95;;;34.40;99.90;;;;;;5053226;28;20222;-80
2021/06/20 10:13:34;;;;;;;2.70;1.20;;;33.00;99.90;;;;;;5051716;28;20286;-80
2021/06/20 10:16:19;;;;;;;2.97;1.13;;;31.80;99.90;;;;;;5053133;28;20306;-80
2021/06/20 10:18:51;;;;;;;2.85;1.00;;;30.80;99.90;;;;;;5059089;28;20192;-80
2021/06/20 10:21:29;;;;;;;2.33;1.10;;;30.30;99.90;;;;;;5038170;28;20220;-81
2021/06/20 10:24:10;;;;;;;1.70;0.90;;;31.10;99.90;;;;;;5048608;28;20232;-83
2021/06/20 10:26:37;;;;;;;5.63;1.00;;;32.90;99.90;;;;;;5049700;28;20232;-80
2021/06/20 10:29:17;;;;;;;2.55;1.00;;;34.30;99.90;;;;;;5054202;28;20784;-81
2021/06/20 10:31:44;;;;;;;1.65;0.90;;;34.70;99.90;;;;;;5051731;28;20196;-80
2021/06/20 10:34:22;;;;;;;4.63;1.10;;;34.00;99.90;;;;;;5041363;28;20592;-79
2021/06/20 10:36:51;;;;;;;2.28;0.90;;;32.80;99.90;;;;;;5044644;28;20287;-81
2021/06/20 10:39:21;;;;;;;1.13;0.95;;;31.60;99.90;;;;;;5050606;28;20271;-81
2021/06/20 10:41:48;;;;;;;2.97;1.02;;;31.20;99.90;;;;;;5058218;28;20291;-82
2021/06/20 10:44:15;;;;;;;2.08;0.77;;;32.20;99.90;;;;;;5053641;28;20319;-81
2021/06/20 10:46:42;;;;;;;1.67;0.95;;;33.40;99.90;;;;;;5049342;28;20311;-81
2021/06/20 10:49:18;;;;;;;2.67;1.08;;;33.80;99.90;;;;;;5051445;28;20287;-80
2021/06/20 10:51:45;;;;;;;1.60;0.90;;;34.20;99.90;;;;;;5036051;28;20658;-80
2021/06/20 10:54:27;;;;;;;1.00;0.90;;;35.00;99.30;;;;;;5036951;28;20224;-79
2021/06/20 10:56:58;;;;;;;0.90;0.90;;;35.40;97.70;;;;;;5041682;28;20677;-80
2021/06/20 10:59:25;;;;;;;1.27;0.90;;;36.50;97.70;;;;;;5032095;28;20219;-80
2021/06/20 11:01:52;;;;;;;4.43;0.80;;;37.20;96.60;;;;;;5043336;28;20206;-80
2021/06/20 11:04:19;;;;;;;2.75;0.80;;;36.70;96.40;;;;;;5038454;28;20647;-80
2021/06/20 11:06:53;;;;;;;2.08;0.80;;;35.30;96.80;;;;;;5045686;28;20192;-80
2021/06/20 11:09:22;;;;;;;1.45;0.90;;;35.00;97.60;;;;;;5036122;28;20202;-80
2021/06/20 11:11:53;;;;;;;1.88;1.02;;;36.00;97.30;;;;;;5039100;28;20269;-81
2021/06/20 11:14:20;;;;;;;3.95;1.00;;;37.00;96.50;;;;;;5036511;28;20192;-80
2021/06/20 11:16:50;;;;;;;0.98;0.80;;;37.20;95.00;;;;;;5044165;28;20215;-78
2021/06/20 11:19:22;;;;;;;1.65;1.00;;;37.00;94.90;;;;;;5050040;28;20189;-79
2021/06/20 11:21:53;;;;;;;3.42;1.00;;;38.10;95.30;;;;;;5051118;28;20423;-80
2021/06/20 11:24:23;;;;;;;1.05;0.88;;;37.80;94.60;;;;;;5050414;28;20216;-80
2021/06/20 11:26:59;;;;;;;1.67;0.82;;;38.70;93.80;;;;;;5052158;28;20212;-80
2021/06/20 11:29:37;;;;;;;1.90;0.90;;;37.80;93.30;;;;;;5052942;28;20212;-80
2021/06/20 11:32:06;;;;;;;1.98;0.95;;;37.40;93.40;;;;;;5052256;28;20622;-80
2021/06/20 11:34:34;;;;;;;1.10;1.00;;;37.70;94.00;;;;;;5052807;28;20207;-80
2021/06/20 11:37:01;;;;;;;1.23;0.90;;;38.00;94.10;;;;;;5049696;28;20263;-80
2021/06/20 11:39:35;;;;;;;1.27;0.73;;;37.10;95.60;;;;;;5046607;28;20200;-79
2021/06/20 11:42:04;;;;;;;0.90;0.88;;;35.80;95.70;;;;;;5050637;28;20216;-79
2021/06/20 11:44:31;;;;;;;2.50;1.00;;;34.80;96.60;;;;;;5051819;28;20232;-81
2021/06/20 11:46:59;;;;;;;1.13;1.02;;;34.30;96.80;;;;;;5051301;28;20647;-81
2021/06/20 11:49:26;;;;;;;1.35;0.70;;;34.60;97.50;;;;;;5053160;28;20200;-83
2021/06/20 11:51:56;;;;;;;3.05;1.00;;;34.70;97.30;;;;;;5042365;28;20250;-79
2021/06/20 11:54:28;;;;;;;1.55;0.80;;;35.30;96.50;;;;;;5052071;28;20224;-79
2021/06/20 11:56:57;;;;;;;1.08;0.80;;;35.50;95.80;;;;;;5052992;28;20216;-80
2021/06/20 11:59:31;;;;;;;2.30;0.90;;;35.50;96.10;;;;;;5051272;28;20230;-79
2021/06/20 12:01:58;;;;;;;1.45;0.80;;;35.60;95.60;;;;;;5048963;28;20220;-80
2021/06/20 12:04:27;;;;;;;1.92;0.82;;;34.70;96.80;;;;;;5052354;28;20231;-81
2021/06/20 12:06:55;;;;;;;1.80;1.05;;;34.40;96.90;;;;;;5051619;28;20227;-80
2021/06/20 12:09:23;;;;;;;2.15;0.70;;;34.90;97.00;;;;;;5052178;28;20628;-80
2021/06/20 12:11:58;;;;;;;2.33;0.80;;;35.60;95.30;;;;;;5041505;28;20253;-79
2021/06/20 12:14:29;;;;;;;1.00;0.73;;;35.50;94.70;;;;;;5031445;28;20250;-82
2021/06/20 12:16:57;;;;;;;2.70;1.00;;;35.40;95.60;;;;;;5043474;28;20274;-81
2021/06/20 12:19:27;;;;;;;1.90;0.80;;;35.20;95.70;;;;;;5050307;28;20227;-79
2021/06/20 12:22:09;;;;;;;1.27;0.80;;;34.60;95.00;;;;;;5052729;28;20196;-81
2021/06/20 12:24:38;;;;;;;2.05;0.80;;;33.20;96.70;;;;;;5060246;28;20253;-80
2021/06/20 12:27:06;;;;;;;4.22;0.90;;;33.20;97.60;;;;;;5028969;28;20239;-80
2021/06/20 12:29:36;;;;;;;1.40;0.82;;;33.70;97.30;;;;;;5048852;28;20282;-80
2021/06/20 12:32:05;;;;;;;2.92;0.82;;;33.70;98.30;;;;;;5043127;28;20196;-79
2021/06/20 12:34:44;;;;;;;1.52;0.90;;;33.90;98.00;;;;;;5040216;28;20208;-79
2021/06/20 12:37:11;;;;;;;7.05;1.00;;;34.60;97.60;;;;;;5038023;28;20273;-79
2021/06/20 12:39:44;;;;;;;1.35;0.68;;;34.10;96.20;;;;;;5049276;28;20216;-81
2021/06/20 12:42:12;;;;;;;2.67;1.00;;;33.20;97.40;;;;;;5050403;28;20232;-81